Tarpon — WDG9715 — position and weather

sailwx.info

Track history (hours):
 
Tides and Currents Weather Stations Pressure Air Temp Water Temp Dewpoint Dewpoint Depression Visibility Wind Speed Wind Dir Waves Ship Positions

Tarpon

Owner: Kirby Offshore Marine, LLC, Staten Island, NY. More information available from US FCC via Universal Licensing System and Coast Guard Vessel Documentation Center.

Last reported at 2017-Oct-22 06:28 UTC. Time now 2017-Oct-22 06:33 UTC.
Position N 40°40' W 074°02'.

Length 149 m; draft 4.9 m.

Type: . MMSI: 366920940.

Date/timePositionNaut miles runAvg speedWind from/ knotsBaromVisibWave heightAir tempDewpointWater temp
2017-Oct-22 06:28N 40°40' W 074°02'0 0.0
2017-Oct-22 05:58N 40°40' W 074°02'0 0.0
2017-Oct-22 05:28N 40°40' W 074°02'0 0.3
2017-Oct-22 04:58N 40°40' W 074°02'0 0.2
2017-Oct-22 04:28N 40°40' W 074°02'0 0.0
2017-Oct-22 03:58N 40°40' W 074°02'0 0.0
2017-Oct-22 03:28N 40°40' W 074°02'0 0.0
2017-Oct-22 02:58N 40°40' W 074°02'0 0.0
2017-Oct-22 02:28N 40°40' W 074°02'0 0.0
2017-Oct-22 01:58N 40°40' W 074°02'0 0.0
2017-Oct-22 01:28N 40°40' W 074°02'0 0.0
2017-Oct-22 00:58N 40°40' W 074°02'0 0.1
2017-Oct-22 00:28N 40°40' W 074°02'0 0.0
2017-Oct-21 23:58N 40°40' W 074°02'0 0.1
2017-Oct-21 23:19N 40°40' W 074°02'0 0.0
2017-Oct-21 22:58N 40°40' W 074°02'0 0.1
2017-Oct-21 22:16N 40°40' W 074°02'0 0.2
2017-Oct-21 21:58N 40°40' W 074°02'0 0.1
2017-Oct-21 21:28N 40°40' W 074°02'0 0.0
2017-Oct-21 20:52N 40°40' W 074°02'0 0.1
2017-Oct-21 20:19N 40°40' W 074°02'0 0.0
2017-Oct-21 19:49N 40°40' W 074°02'0 0.0
2017-Oct-21 19:28N 40°40' W 074°02'0 0.0
2017-Oct-21 18:55N 40°40' W 074°02'0 0.0
2017-Oct-21 18:28N 40°40' W 074°02'0 0.0
2017-Oct-21 17:43N 40°40' W 074°02'0 0.0
2017-Oct-21 17:28N 40°40' W 074°02'0 0.0
2017-Oct-21 16:58N 40°40' W 074°02'0 0.3
2017-Oct-21 16:28N 40°40' W 074°02'0 0.2
2017-Oct-21 15:58N 40°40' W 074°02'0 0.0
2017-Oct-21 15:10N 40°40' W 074°02'0 0.0
2017-Oct-21 14:55N 40°40' W 074°02'0 0.0
2017-Oct-21 14:28N 40°40' W 074°02'0 0.0
2017-Oct-21 13:22N 40°40' W 074°02'0 0.0
2017-Oct-21 12:58N 40°40' W 074°02'0 0.0
2017-Oct-21 12:13N 40°40' W 074°02'0 0.1
2017-Oct-21 11:55N 40°40' W 074°02'0 0.1
2017-Oct-21 11:28N 40°40' W 074°02'0 0.1
2017-Oct-21 10:22N 40°40' W 074°02'0 0.1
2017-Oct-21 09:58N 40°40' W 074°02'0 0.1
2017-Oct-21 09:28N 40°40' W 074°02'0 0.0
2017-Oct-21 08:58N 40°40' W 074°02'0 0.0
2017-Oct-21 08:25N 40°40' W 074°02'0 0.0
2017-Oct-21 07:58N 40°40' W 074°02'0 0.0
2017-Oct-21 07:28N 40°40' W 074°02'0 0.0
2017-Oct-21 06:58N 40°40' W 074°02'0 0.0
2017-Oct-21 06:28N 40°40' W 074°02'0 0.0
2017-Oct-21 05:58N 40°40' W 074°02'0 0.0
2017-Oct-21 05:28N 40°40' W 074°02'0 0.0
2017-Oct-21 04:58N 40°40' W 074°02'0 0.0
2017-Oct-21 04:28N 40°40' W 074°02'0 0.3
2017-Oct-21 03:58N 40°40' W 074°02'0 0.1
2017-Oct-21 03:28N 40°40' W 074°02'0 0.1
2017-Oct-21 02:58N 40°40' W 074°02'0 0.0
2017-Oct-21 02:28N 40°40' W 074°02'0 0.1
2017-Oct-21 01:58N 40°40' W 074°02'0 0.0
2017-Oct-21 01:28N 40°40' W 074°02'0 0.0
2017-Oct-21 00:58N 40°40' W 074°02'0 0.0
2017-Oct-21 00:28N 40°40' W 074°02'0 0.1
2017-Oct-20 23:58N 40°40' W 074°02'0 0.1
2017-Oct-20 23:28N 40°40' W 074°02'0 0.0
2017-Oct-20 22:58N 40°40' W 074°02'0 0.1
2017-Oct-20 22:28N 40°40' W 074°02'0 0.1
2017-Oct-20 21:58N 40°40' W 074°02'0 0.1
2017-Oct-20 21:28N 40°40' W 074°02'0 0.1
2017-Oct-20 20:58N 40°40' W 074°02'0 0.1
2017-Oct-20 20:30N 40°40' W 074°02'0 0.1
2017-Oct-20 20:00N 40°40' W 074°02'5 9.3
2017-Oct-20 19:30N 40°39' W 074°08'1 2.6
2017-Oct-20 19:00N 40°39' W 074°10'3 6.0
2017-Oct-20 18:30N 40°39' W 074°06'3 6.2
2017-Oct-20 18:00N 40°40' W 074°02'1 1.3
2017-Oct-20 17:30N 40°41' W 074°02'5 9.8
2017-Oct-20 17:00N 40°45' W 074°01'5 9.1
2017-Oct-20 16:30N 40°50' W 073°58'0 0.7
2017-Oct-20 16:00N 40°50' W 073°58'0 0.0
2017-Oct-20 15:30N 40°50' W 073°58'0 0.0
2017-Oct-20 13:27N 40°50' W 073°58'0 0.0
2017-Oct-20 12:51N 40°50' W 073°58'0 0.0
2017-Oct-20 12:21N 40°50' W 073°58'0 0.0
2017-Oct-20 12:00N 40°50' W 073°58'0 0.0
2017-Oct-20 11:30N 40°50' W 073°58'0 0.3
2017-Oct-20 10:54N 40°50' W 073°58'0 0.2
2017-Oct-20 10:24N 40°50' W 073°58'0 0.0
2017-Oct-20 10:00N 40°50' W 073°58'0 0.0
2017-Oct-20 09:27N 40°50' W 073°58'0 0.0
2017-Oct-20 08:57N 40°50' W 073°58'0 0.0
2017-Oct-20 08:27N 40°50' W 073°58'0 0.0
2017-Oct-20 08:00N 40°50' W 073°58'0 0.0
2017-Oct-20 07:30N 40°50' W 073°58'0 0.0
2017-Oct-20 07:00N 40°50' W 073°58'0 0.0
2017-Oct-20 06:27N 40°50' W 073°58'0 0.0
2017-Oct-20 06:00N 40°50' W 073°58'0 0.0
2017-Oct-20 05:30N 40°50' W 073°58'0 0.1
2017-Oct-20 05:00N 40°50' W 073°58'0 0.0
2017-Oct-20 04:30N 40°50' W 073°58'0 0.3
2017-Oct-20 04:00N 40°50' W 073°58'0 0.1
2017-Oct-20 03:30N 40°50' W 073°58'0 0.1
2017-Oct-20 02:57N 40°50' W 073°58'0 0.0
2017-Oct-20 02:30N 40°50' W 073°58'0 0.0
2017-Oct-20 01:57N 40°50' W 073°58'0 0.0
2017-Oct-20 01:30N 40°50' W 073°58'0 0.0
2017-Oct-20 00:57N 40°50' W 073°58'0 0.0
2017-Oct-20 00:30N 40°50' W 073°58'0 0.0
2017-Oct-19 23:54N 40°50' W 073°58'0 0.0
2017-Oct-19 23:18N 40°50' W 073°58'0 0.1
2017-Oct-19 23:00N 40°50' W 073°58'0 0.6
2017-Oct-19 22:30N 40°49' W 073°58'4 8.7
2017-Oct-19 22:00N 40°46' W 074°01'4 8.2
2017-Oct-19 21:30N 40°42' W 074°02'3 5.7
2017-Oct-19 21:00N 40°40' W 074°04'0 0.0
2017-Oct-19 20:29N 40°40' W 074°04'0 0.0
2017-Oct-19 19:59N 40°40' W 074°04'0 0.0
2017-Oct-19 19:29N 40°40' W 074°04'0 0.0
2017-Oct-19 18:59N 40°40' W 074°04'0 0.0
2017-Oct-19 18:29N 40°40' W 074°04'0 0.0
2017-Oct-19 17:59N 40°40' W 074°04'0 1.0
2017-Oct-19 17:30N 40°39' W 074°05'2 3.0
2017-Oct-19 16:59N 40°39' W 074°07'0 0.0
2017-Oct-19 16:29N 40°39' W 074°07'0 0.0
2017-Oct-19 15:59N 40°39' W 074°07'0 0.0
2017-Oct-19 15:29N 40°39' W 074°07'0 0.0
2017-Oct-19 14:59N 40°39' W 074°07'0 0.0
2017-Oct-19 14:29N 40°39' W 074°07'0 0.0
2017-Oct-19 13:59N 40°39' W 074°07'0 0.0
2017-Oct-19 13:29N 40°39' W 074°07'0 0.0
2017-Oct-19 12:59N 40°39' W 074°07'0 0.0
2017-Oct-19 12:29N 40°39' W 074°07'0 0.0
2017-Oct-19 11:56N 40°39' W 074°07'0 0.0
2017-Oct-19 11:26N 40°39' W 074°07'0 0.0
2017-Oct-19 11:01N 40°39' W 074°07'2 3.8
2017-Oct-19 10:30N 40°40' W 074°04'0 0.0
2017-Oct-19 10:00N 40°40' W 074°04'0 0.0
2017-Oct-19 09:30N 40°40' W 074°04'0 0.0
2017-Oct-19 09:00N 40°40' W 074°04'0 0.0
2017-Oct-19 08:30N 40°40' W 074°04'0 0.0
2017-Oct-19 08:00N 40°40' W 074°04'0 0.0
2017-Oct-19 07:30N 40°40' W 074°04'0 0.0
2017-Oct-19 07:00N 40°40' W 074°04'0 0.0
2017-Oct-19 06:30N 40°40' W 074°04'0 0.0
2017-Oct-19 06:00N 40°40' W 074°04'0 0.0
2017-Oct-19 05:30N 40°40' W 074°04'0 0.0
2017-Oct-19 05:00N 40°40' W 074°04'0 0.0
2017-Oct-19 04:30N 40°40' W 074°04'0 0.0
2017-Oct-19 04:00N 40°40' W 074°04'0 0.0
2017-Oct-19 03:30N 40°40' W 074°04'0 0.0
2017-Oct-19 03:00N 40°40' W 074°04'0 0.0
2017-Oct-19 02:30N 40°40' W 074°04'0 0.0
2017-Oct-19 02:00N 40°40' W 074°04'0 0.0
2017-Oct-19 01:30N 40°40' W 074°04'0 0.0
2017-Oct-19 01:00N 40°40' W 074°04'0 0.0
2017-Oct-19 00:30N 40°40' W 074°04'0 0.0
2017-Oct-19 00:00N 40°40' W 074°04'0 0.0
2017-Oct-18 23:30N 40°40' W 074°04'0 0.0
2017-Oct-18 23:00N 40°40' W 074°04'0 0.0
2017-Oct-18 22:30N 40°40' W 074°04'3 5.6
2017-Oct-18 22:00N 40°39' W 074°08'2 2.7
2017-Oct-18 21:21N 40°39' W 074°10'0 0.1
2017-Oct-18 21:00N 40°38' W 074°10'0 0.0
2017-Oct-18 20:30N 40°38' W 074°10'0 0.0
2017-Oct-18 19:57N 40°38' W 074°10'0 0.0
2017-Oct-18 19:30N 40°38' W 074°10'0 0.0
2017-Oct-18 19:00N 40°38' W 074°10'0 0.0
2017-Oct-18 18:30N 40°38' W 074°10'0 0.0
2017-Oct-18 18:00N 40°38' W 074°10'0 0.0
2017-Oct-18 17:30N 40°38' W 074°10'0 0.0
2017-Oct-18 17:00N 40°38' W 074°10'2 4.9
2017-Oct-18 16:30N 40°39' W 074°07'2 4.0
2017-Oct-18 15:59N 40°40' W 074°04'0 0.0
2017-Oct-18 15:29N 40°40' W 074°04'0 0.0
2017-Oct-18 14:59N 40°40' W 074°04'0 0.0
2017-Oct-18 14:00N 40°40' W 074°04'0 0.4
2017-Oct-18 13:30N 40°40' W 074°04'1 2.8
2017-Oct-18 13:00N 40°40' W 074°02'0 0.0
2017-Oct-18 12:30N 40°40' W 074°02'0 0.0
2017-Oct-18 11:58N 40°40' W 074°02'0 0.0
2017-Oct-18 11:28N 40°40' W 074°02'0 0.0
2017-Oct-18 10:58N 40°40' W 074°02'0 0.0
2017-Oct-18 10:28N 40°40' W 074°02'0 0.0
2017-Oct-18 09:58N 40°40' W 074°02'0 0.0
2017-Oct-18 09:28N 40°40' W 074°02'0 0.0
2017-Oct-18 08:58N 40°40' W 074°02'0 0.0
2017-Oct-18 08:28N 40°40' W 074°02'0 0.0
2017-Oct-18 07:58N 40°40' W 074°02'0 0.2
2017-Oct-18 07:28N 40°40' W 074°02'0 0.2
2017-Oct-18 06:58N 40°40' W 074°02'0 0.0
2017-Oct-18 06:28N 40°40' W 074°02'0 0.0
2017-Oct-18 05:58N 40°40' W 074°02'0 0.0
2017-Oct-18 05:28N 40°40' W 074°02'0 0.0
2017-Oct-18 04:58N 40°40' W 074°02'0 0.0
2017-Oct-18 04:28N 40°40' W 074°02'0 0.0
2017-Oct-18 03:58N 40°40' W 074°02'0 0.1
2017-Oct-18 03:28N 40°40' W 074°02'0 0.3
2017-Oct-18 02:58N 40°40' W 074°02'0 0.0
2017-Oct-18 02:28N 40°40' W 074°02'0 0.0
2017-Oct-18 01:58N 40°40' W 074°02'0 0.0
2017-Oct-18 01:28N 40°40' W 074°02'0 0.0
2017-Oct-18 00:58N 40°40' W 074°02'0 0.0
2017-Oct-18 00:28N 40°40' W 074°02'0 0.0
2017-Oct-17 23:58N 40°40' W 074°02'0 0.0
2017-Oct-17 23:28N 40°40' W 074°02'0 0.0
2017-Oct-17 22:58N 40°40' W 074°02'0 0.0
2017-Oct-17 22:28N 40°40' W 074°02'0 0.0
2017-Oct-17 21:58N 40°40' W 074°02'0 0.0
2017-Oct-17 21:28N 40°40' W 074°02'0 0.1
2017-Oct-17 20:58N 40°40' W 074°02'0 0.0
2017-Oct-17 20:28N 40°40' W 074°02'0 0.1
2017-Oct-17 19:58N 40°40' W 074°02'0 0.3
2017-Oct-17 19:28N 40°40' W 074°02'0 0.1
2017-Oct-17 18:58N 40°40' W 074°02'0 0.0
2017-Oct-17 18:28N 40°40' W 074°02'0 0.0
2017-Oct-17 17:58N 40°40' W 074°02'0 0.0
2017-Oct-17 17:28N 40°40' W 074°02'0 0.0
2017-Oct-17 16:58N 40°40' W 074°02'0 0.0
2017-Oct-17 16:28N 40°40' W 074°02'0 0.0
2017-Oct-17 15:58N 40°40' W 074°02'0 0.0
2017-Oct-17 15:28N 40°40' W 074°02'0 0.1
2017-Oct-17 14:58N 40°40' W 074°02'0 0.0
2017-Oct-17 14:28N 40°40' W 074°02'0 0.0
2017-Oct-17 13:58N 40°40' W 074°02'0 0.0
2017-Oct-17 13:28N 40°40' W 074°02'0 0.1
2017-Oct-17 12:58N 40°40' W 074°02'0 0.2
2017-Oct-17 12:28N 40°40' W 074°02'0 0.1
2017-Oct-17 11:58N 40°40' W 074°02'0 0.1
2017-Oct-17 11:28N 40°40' W 074°02'0 0.0
2017-Oct-17 10:58N 40°40' W 074°02'0 0.0
2017-Oct-17 10:28N 40°40' W 074°02'0 0.1
2017-Oct-17 09:58N 40°40' W 074°02'0 0.1
2017-Oct-17 09:28N 40°40' W 074°02'1 2.3
2017-Oct-17 09:00N 40°41' W 074°02'4 7.6
2017-Oct-17 08:30N 40°45' W 074°01'4 7.1
2017-Oct-17 08:00N 40°48' W 073°59'5 9.0
2017-Oct-17 07:30N 40°52' W 073°56'5 9.4
2017-Oct-17 07:00N 40°56' W 073°54'2 0.0
2017-Oct-15 09:25N 40°58' W 073°54'4 8.4
2017-Oct-15 08:58N 40°55' W 073°55'4 8.4
2017-Oct-15 08:30N 40°51' W 073°57'4 8.4
2017-Oct-15 08:00N 40°47' W 073°59'4 7.9
2017-Oct-15 07:30N 40°44' W 074°01'4 7.4
2017-Oct-15 07:00N 40°40' W 074°03'3 5.6
2017-Oct-15 06:30N 40°39' W 074°06'3 5.1
2017-Oct-15 06:00N 40°39' W 074°10'2 4.7
2017-Oct-15 05:30N 40°38' W 074°12'0 0.1
2017-Oct-15 05:00N 40°38' W 074°12'0 0.0
2017-Oct-15 04:30N 40°38' W 074°12'2 3.9
2017-Oct-15 03:59N 40°38' W 074°10'0 0.0
2017-Oct-15 03:28N 40°38' W 074°10'0 0.0
2017-Oct-15 02:55N 40°38' W 074°10'0 0.0
2017-Oct-15 02:31N 40°38' W 074°10'2 3.6
2017-Oct-15 02:00N 40°38' W 074°12'0 0.5
2017-Oct-15 01:31N 40°38' W 074°12'0 0.0
2017-Oct-15 00:57N 40°38' W 074°12'0 0.0
2017-Oct-15 00:30N 40°38' W 074°12'0 0.0
2017-Oct-15 00:00N 40°38' W 074°12'0 0.0
2017-Oct-14 23:30N 40°38' W 074°12'0 0.0
2017-Oct-14 23:00N 40°38' W 074°12'0 0.0
2017-Oct-14 22:21N 40°38' W 074°12'0 0.0
2017-Oct-14 22:00N 40°38' W 074°12'0 0.0
2017-Oct-14 21:24N 40°38' W 074°12'0 0.0
2017-Oct-14 20:57N 40°38' W 074°12'0 0.0
2017-Oct-14 20:27N 40°38' W 074°12'0 0.0
2017-Oct-14 19:57N 40°38' W 074°12'0 0.0
2017-Oct-14 19:30N 40°38' W 074°12'0 0.0
2017-Oct-14 19:00N 40°38' W 074°12'0 0.0
2017-Oct-14 18:27N 40°38' W 074°12'0 0.0
2017-Oct-14 17:57N 40°38' W 074°12'0 0.0
2017-Oct-14 17:30N 40°38' W 074°12'0 0.0
2017-Oct-14 16:58N 40°38' W 074°12'0 0.0
2017-Oct-14 16:30N 40°38' W 074°12'0 0.0
2017-Oct-14 16:00N 40°38' W 074°12'0 0.0
2017-Oct-14 15:30N 40°38' W 074°12'0 0.0
2017-Oct-14 14:54N 40°38' W 074°12'0 0.0
2017-Oct-14 14:30N 40°38' W 074°12'0 0.0
2017-Oct-14 14:00N 40°38' W 074°12'0 0.0
2017-Oct-14 13:30N 40°38' W 074°12'0 0.0
2017-Oct-14 13:00N 40°38' W 074°12'0 0.0
2017-Oct-14 11:30N 40°38' W 074°12'0 0.0
2017-Oct-14 10:51N 40°38' W 074°12'0 0.0
2017-Oct-14 10:21N 40°38' W 074°12'0 0.0
2017-Oct-14 09:57N 40°38' W 074°12'0 0.0
2017-Oct-14 09:24N 40°38' W 074°12'0 0.0
2017-Oct-14 08:45N 40°38' W 074°12'0 0.0
2017-Oct-14 08:21N 40°38' W 074°12'0 0.0
2017-Oct-14 07:54N 40°38' W 074°12'0 0.0
2017-Oct-14 07:30N 40°38' W 074°12'0 0.0
2017-Oct-14 07:00N 40°38' W 074°12'0 0.0
2017-Oct-14 06:27N 40°38' W 074°12'0 0.0
2017-Oct-14 05:51N 40°38' W 074°12'0 0.0
2017-Oct-14 05:30N 40°38' W 074°12'0 0.0
2017-Oct-14 04:57N 40°38' W 074°12'0 0.0
2017-Oct-14 04:27N 40°38' W 074°12'0 0.0
2017-Oct-14 03:57N 40°38' W 074°12'0 0.0
2017-Oct-14 03:27N 40°38' W 074°12'0 0.0
2017-Oct-14 02:45N 40°38' W 074°12'0 0.0
2017-Oct-14 02:30N 40°38' W 074°12'0 0.0
2017-Oct-14 01:39N 40°38' W 074°12'0 0.0
2017-Oct-14 01:27N 40°38' W 074°12'0 0.0
2017-Oct-14 00:57N 40°38' W 074°12'0 0.0
2017-Oct-14 00:27N 40°38' W 074°12'0 0.0
2017-Oct-13 23:51N 40°38' W 074°12'0 0.0
2017-Oct-13 23:27N 40°38' W 074°12'0 0.0
2017-Oct-13 22:57N 40°38' W 074°12'0 0.0
2017-Oct-13 22:27N 40°38' W 074°12'0 0.2
2017-Oct-13 22:00N 40°38' W 074°12'2 4.0
2017-Oct-13 21:30N 40°39' W 074°10'4 7.0
2017-Oct-13 21:00N 40°39' W 074°05'3 6.7
2017-Oct-13 20:30N 40°41' W 074°02'4 7.3
2017-Oct-13 20:00N 40°45' W 074°01'3 6.8
2017-Oct-13 19:30N 40°48' W 073°59'4 7.1
2017-Oct-13 19:00N 40°51' W 073°57'4 7.4
2017-Oct-13 18:30N 40°54' W 073°55'2 1.1
2017-Oct-13 16:40N 40°56' W 073°55'0 0.0
2017-Oct-13 16:16N 40°56' W 073°55'0 0.0
2017-Oct-13 15:58N 40°56' W 073°55'0 0.0
2017-Oct-13 15:31N 40°56' W 073°55'0 0.0
2017-Oct-13 14:46N 40°56' W 073°55'0 0.1
2017-Oct-13 14:28N 40°56' W 073°55'0 0.0
2017-Oct-13 13:28N 40°56' W 073°55'0 0.0
2017-Oct-13 12:58N 40°56' W 073°55'0 0.0
2017-Oct-13 12:28N 40°56' W 073°55'0 0.0
2017-Oct-13 12:01N 40°56' W 073°55'0 0.0
2017-Oct-13 11:28N 40°56' W 073°55'0 0.0
2017-Oct-13 10:58N 40°56' W 073°55'0 0.1
2017-Oct-13 10:28N 40°56' W 073°55'0 0.1
2017-Oct-13 08:37N 40°57' W 073°55'0 0.1
2017-Oct-13 07:10N 40°56' W 073°55'0 0.2
2017-Oct-13 07:01N 40°56' W 073°55'0 0.0
2017-Oct-13 05:46N 40°56' W 073°55'0 0.0
2017-Oct-13 05:22N 40°56' W 073°55'0 0.0
2017-Oct-13 04:58N 40°56' W 073°55'0 0.0
2017-Oct-13 04:22N 40°56' W 073°55'0 0.0
2017-Oct-13 03:55N 40°56' W 073°55'0 0.0
2017-Oct-13 03:28N 40°56' W 073°55'0 0.0
2017-Oct-13 02:34N 40°56' W 073°55'0 0.0
2017-Oct-13 02:28N 40°56' W 073°55'0 0.0
2017-Oct-13 01:46N 40°56' W 073°55'0 0.1
2017-Oct-12 21:52N 40°57' W 073°55'0 0.0
2017-Oct-12 21:25N 40°57' W 073°55'0 0.0
2017-Oct-12 20:28N 40°57' W 073°55'0 0.0
2017-Oct-12 19:09N 40°57' W 073°55'0 0.0
2017-Oct-12 19:00N 40°57' W 073°55'0 0.1
2017-Oct-12 14:09N 40°56' W 073°55'0 0.0
2017-Oct-12 12:57N 40°56' W 073°55'0 0.0
2017-Oct-12 12:28N 40°56' W 073°55'0 0.0
2017-Oct-12 10:09N 40°56' W 073°55'0 0.1
2017-Oct-12 06:33N 40°57' W 073°55'  
Track history (hours):
 
Tides and Currents Weather Stations Pressure Air Temp Water Temp Dewpoint Dewpoint Depression Visibility Wind Speed Wind Dir Waves Ship Positions

Tarpon

Owner: Kirby Offshore Marine, LLC, Staten Island, NY. More information available from US FCC via Universal Licensing System and Coast Guard Vessel Documentation Center.

Last reported at 2017-Oct-22 06:28 UTC. Time now 2017-Oct-22 06:33 UTC.
Position N 40°40' W 074°02'.

Length 149 m; draft 4.9 m.

Type: . MMSI: 366920940.

Date/timePositionNaut miles runAvg speedWind from/ knotsBaromVisibWave heightAir tempDewpointWater temp
2017-Oct-22 06:28N 40°40' W 074°02'0 0.0
2017-Oct-22 05:58N 40°40' W 074°02'0 0.0
2017-Oct-22 05:28N 40°40' W 074°02'0 0.3
2017-Oct-22 04:58N 40°40' W 074°02'0 0.2
2017-Oct-22 04:28N 40°40' W 074°02'0 0.0
2017-Oct-22 03:58N 40°40' W 074°02'0 0.0
2017-Oct-22 03:28N 40°40' W 074°02'0 0.0
2017-Oct-22 02:58N 40°40' W 074°02'0 0.0
2017-Oct-22 02:28N 40°40' W 074°02'0 0.0
2017-Oct-22 01:58N 40°40' W 074°02'0 0.0
2017-Oct-22 01:28N 40°40' W 074°02'0 0.0
2017-Oct-22 00:58N 40°40' W 074°02'0 0.1
2017-Oct-22 00:28N 40°40' W 074°02'0 0.0
2017-Oct-21 23:58N 40°40' W 074°02'0 0.1
2017-Oct-21 23:19N 40°40' W 074°02'0 0.0
2017-Oct-21 22:58N 40°40' W 074°02'0 0.1
2017-Oct-21 22:16N 40°40' W 074°02'0 0.2
2017-Oct-21 21:58N 40°40' W 074°02'0 0.1
2017-Oct-21 21:28N 40°40' W 074°02'0 0.0
2017-Oct-21 20:52N 40°40' W 074°02'0 0.1
2017-Oct-21 20:19N 40°40' W 074°02'0 0.0
2017-Oct-21 19:49N 40°40' W 074°02'0 0.0
2017-Oct-21 19:28N 40°40' W 074°02'0 0.0
2017-Oct-21 18:55N 40°40' W 074°02'0 0.0
2017-Oct-21 18:28N 40°40' W 074°02'0 0.0
2017-Oct-21 17:43N 40°40' W 074°02'0 0.0
2017-Oct-21 17:28N 40°40' W 074°02'0 0.0
2017-Oct-21 16:58N 40°40' W 074°02'0 0.3
2017-Oct-21 16:28N 40°40' W 074°02'0 0.2
2017-Oct-21 15:58N 40°40' W 074°02'0 0.0
2017-Oct-21 15:10N 40°40' W 074°02'0 0.0
2017-Oct-21 14:55N 40°40' W 074°02'0 0.0
2017-Oct-21 14:28N 40°40' W 074°02'0 0.0
2017-Oct-21 13:22N 40°40' W 074°02'0 0.0
2017-Oct-21 12:58N 40°40' W 074°02'0 0.0
2017-Oct-21 12:13N 40°40' W 074°02'0 0.1
2017-Oct-21 11:55N 40°40' W 074°02'0 0.1
2017-Oct-21 11:28N 40°40' W 074°02'0 0.1
2017-Oct-21 10:22N 40°40' W 074°02'0 0.1
2017-Oct-21 09:58N 40°40' W 074°02'0 0.1
2017-Oct-21 09:28N 40°40' W 074°02'0 0.0
2017-Oct-21 08:58N 40°40' W 074°02'0 0.0
2017-Oct-21 08:25N 40°40' W 074°02'0 0.0
2017-Oct-21 07:58N 40°40' W 074°02'0 0.0
2017-Oct-21 07:28N 40°40' W 074°02'0 0.0
2017-Oct-21 06:58N 40°40' W 074°02'0 0.0
2017-Oct-21 06:28N 40°40' W 074°02'0 0.0
2017-Oct-21 05:58N 40°40' W 074°02'0 0.0
2017-Oct-21 05:28N 40°40' W 074°02'0 0.0
2017-Oct-21 04:58N 40°40' W 074°02'0 0.0
2017-Oct-21 04:28N 40°40' W 074°02'0 0.3
2017-Oct-21 03:58N 40°40' W 074°02'0 0.1
2017-Oct-21 03:28N 40°40' W 074°02'0 0.1
2017-Oct-21 02:58N 40°40' W 074°02'0 0.0
2017-Oct-21 02:28N 40°40' W 074°02'0 0.1
2017-Oct-21 01:58N 40°40' W 074°02'0 0.0
2017-Oct-21 01:28N 40°40' W 074°02'0 0.0
2017-Oct-21 00:58N 40°40' W 074°02'0 0.0
2017-Oct-21 00:28N 40°40' W 074°02'0 0.1
2017-Oct-20 23:58N 40°40' W 074°02'0 0.1
2017-Oct-20 23:28N 40°40' W 074°02'0 0.0
2017-Oct-20 22:58N 40°40' W 074°02'0 0.1
2017-Oct-20 22:28N 40°40' W 074°02'0 0.1
2017-Oct-20 21:58N 40°40' W 074°02'0 0.1
2017-Oct-20 21:28N 40°40' W 074°02'0 0.1
2017-Oct-20 20:58N 40°40' W 074°02'0 0.1
2017-Oct-20 20:30N 40°40' W 074°02'0 0.1
2017-Oct-20 20:00N 40°40' W 074°02'5 9.3
2017-Oct-20 19:30N 40°39' W 074°08'1 2.6
2017-Oct-20 19:00N 40°39' W 074°10'3 6.0
2017-Oct-20 18:30N 40°39' W 074°06'3 6.2
2017-Oct-20 18:00N 40°40' W 074°02'1 1.3
2017-Oct-20 17:30N 40°41' W 074°02'5 9.8
2017-Oct-20 17:00N 40°45' W 074°01'5 9.1
2017-Oct-20 16:30N 40°50' W 073°58'0 0.7
2017-Oct-20 16:00N 40°50' W 073°58'0 0.0
2017-Oct-20 15:30N 40°50' W 073°58'0 0.0
2017-Oct-20 13:27N 40°50' W 073°58'0 0.0
2017-Oct-20 12:51N 40°50' W 073°58'0 0.0
2017-Oct-20 12:21N 40°50' W 073°58'0 0.0
2017-Oct-20 12:00N 40°50' W 073°58'0 0.0
2017-Oct-20 11:30N 40°50' W 073°58'0 0.3
2017-Oct-20 10:54N 40°50' W 073°58'0 0.2
2017-Oct-20 10:24N 40°50' W 073°58'0 0.0
2017-Oct-20 10:00N 40°50' W 073°58'0 0.0
2017-Oct-20 09:27N 40°50' W 073°58'0 0.0
2017-Oct-20 08:57N 40°50' W 073°58'0 0.0
2017-Oct-20 08:27N 40°50' W 073°58'0 0.0
2017-Oct-20 08:00N 40°50' W 073°58'0 0.0
2017-Oct-20 07:30N 40°50' W 073°58'0 0.0
2017-Oct-20 07:00N 40°50' W 073°58'0 0.0
2017-Oct-20 06:27N 40°50' W 073°58'0 0.0
2017-Oct-20 06:00N 40°50' W 073°58'0 0.0
2017-Oct-20 05:30N 40°50' W 073°58'0 0.1
2017-Oct-20 05:00N 40°50' W 073°58'0 0.0
2017-Oct-20 04:30N 40°50' W 073°58'0 0.3
2017-Oct-20 04:00N 40°50' W 073°58'0 0.1
2017-Oct-20 03:30N 40°50' W 073°58'0 0.1
2017-Oct-20 02:57N 40°50' W 073°58'0 0.0
2017-Oct-20 02:30N 40°50' W 073°58'0 0.0
2017-Oct-20 01:57N 40°50' W 073°58'0 0.0
2017-Oct-20 01:30N 40°50' W 073°58'0 0.0
2017-Oct-20 00:57N 40°50' W 073°58'0 0.0
2017-Oct-20 00:30N 40°50' W 073°58'0 0.0
2017-Oct-19 23:54N 40°50' W 073°58'0 0.0
2017-Oct-19 23:18N 40°50' W 073°58'0 0.1
2017-Oct-19 23:00N 40°50' W 073°58'0 0.6
2017-Oct-19 22:30N 40°49' W 073°58'4 8.7
2017-Oct-19 22:00N 40°46' W 074°01'4 8.2
2017-Oct-19 21:30N 40°42' W 074°02'3 5.7
2017-Oct-19 21:00N 40°40' W 074°04'0 0.0
2017-Oct-19 20:29N 40°40' W 074°04'0 0.0
2017-Oct-19 19:59N 40°40' W 074°04'0 0.0
2017-Oct-19 19:29N 40°40' W 074°04'0 0.0
2017-Oct-19 18:59N 40°40' W 074°04'0 0.0
2017-Oct-19 18:29N 40°40' W 074°04'0 0.0
2017-Oct-19 17:59N 40°40' W 074°04'0 1.0
2017-Oct-19 17:30N 40°39' W 074°05'2 3.0
2017-Oct-19 16:59N 40°39' W 074°07'0 0.0
2017-Oct-19 16:29N 40°39' W 074°07'0 0.0
2017-Oct-19 15:59N 40°39' W 074°07'0 0.0
2017-Oct-19 15:29N 40°39' W 074°07'0 0.0
2017-Oct-19 14:59N 40°39' W 074°07'0 0.0
2017-Oct-19 14:29N 40°39' W 074°07'0 0.0
2017-Oct-19 13:59N 40°39' W 074°07'0 0.0
2017-Oct-19 13:29N 40°39' W 074°07'0 0.0
2017-Oct-19 12:59N 40°39' W 074°07'0 0.0
2017-Oct-19 12:29N 40°39' W 074°07'0 0.0
2017-Oct-19 11:56N 40°39' W 074°07'0 0.0
2017-Oct-19 11:26N 40°39' W 074°07'0 0.0
2017-Oct-19 11:01N 40°39' W 074°07'2 3.8
2017-Oct-19 10:30N 40°40' W 074°04'0 0.0
2017-Oct-19 10:00N 40°40' W 074°04'0 0.0
2017-Oct-19 09:30N 40°40' W 074°04'0 0.0
2017-Oct-19 09:00N 40°40' W 074°04'0 0.0
2017-Oct-19 08:30N 40°40' W 074°04'0 0.0
2017-Oct-19 08:00N 40°40' W 074°04'0 0.0
2017-Oct-19 07:30N 40°40' W 074°04'0 0.0
2017-Oct-19 07:00N 40°40' W 074°04'0 0.0
2017-Oct-19 06:30N 40°40' W 074°04'0 0.0
2017-Oct-19 06:00N 40°40' W 074°04'0 0.0
2017-Oct-19 05:30N 40°40' W 074°04'0 0.0
2017-Oct-19 05:00N 40°40' W 074°04'0 0.0
2017-Oct-19 04:30N 40°40' W 074°04'0 0.0
2017-Oct-19 04:00N 40°40' W 074°04'0 0.0
2017-Oct-19 03:30N 40°40' W 074°04'0 0.0
2017-Oct-19 03:00N 40°40' W 074°04'0 0.0
2017-Oct-19 02:30N 40°40' W 074°04'0 0.0
2017-Oct-19 02:00N 40°40' W 074°04'0 0.0
2017-Oct-19 01:30N 40°40' W 074°04'0 0.0
2017-Oct-19 01:00N 40°40' W 074°04'0 0.0
2017-Oct-19 00:30N 40°40' W 074°04'0 0.0
2017-Oct-19 00:00N 40°40' W 074°04'0 0.0
2017-Oct-18 23:30N 40°40' W 074°04'0 0.0
2017-Oct-18 23:00N 40°40' W 074°04'0 0.0
2017-Oct-18 22:30N 40°40' W 074°04'3 5.6
2017-Oct-18 22:00N 40°39' W 074°08'2 2.7
2017-Oct-18 21:21N 40°39' W 074°10'0 0.1
2017-Oct-18 21:00N 40°38' W 074°10'0 0.0
2017-Oct-18 20:30N 40°38' W 074°10'0 0.0
2017-Oct-18 19:57N 40°38' W 074°10'0 0.0
2017-Oct-18 19:30N 40°38' W 074°10'0 0.0
2017-Oct-18 19:00N 40°38' W 074°10'0 0.0
2017-Oct-18 18:30N 40°38' W 074°10'0 0.0
2017-Oct-18 18:00N 40°38' W 074°10'0 0.0
2017-Oct-18 17:30N 40°38' W 074°10'0 0.0
2017-Oct-18 17:00N 40°38' W 074°10'2 4.9
2017-Oct-18 16:30N 40°39' W 074°07'2 4.0
2017-Oct-18 15:59N 40°40' W 074°04'0 0.0
2017-Oct-18 15:29N 40°40' W 074°04'0 0.0
2017-Oct-18 14:59N 40°40' W 074°04'0 0.0
2017-Oct-18 14:00N 40°40' W 074°04'0 0.4
2017-Oct-18 13:30N 40°40' W 074°04'1 2.8
2017-Oct-18 13:00N 40°40' W 074°02'0 0.0
2017-Oct-18 12:30N 40°40' W 074°02'0 0.0
2017-Oct-18 11:58N 40°40' W 074°02'0 0.0
2017-Oct-18 11:28N 40°40' W 074°02'0 0.0
2017-Oct-18 10:58N 40°40' W 074°02'0 0.0
2017-Oct-18 10:28N 40°40' W 074°02'0 0.0
2017-Oct-18 09:58N 40°40' W 074°02'0 0.0
2017-Oct-18 09:28N 40°40' W 074°02'0 0.0
2017-Oct-18 08:58N 40°40' W 074°02'0 0.0
2017-Oct-18 08:28N 40°40' W 074°02'0 0.0
2017-Oct-18 07:58N 40°40' W 074°02'0 0.2
2017-Oct-18 07:28N 40°40' W 074°02'0 0.2
2017-Oct-18 06:58N 40°40' W 074°02'0 0.0
2017-Oct-18 06:28N 40°40' W 074°02'0 0.0
2017-Oct-18 05:58N 40°40' W 074°02'0 0.0
2017-Oct-18 05:28N 40°40' W 074°02'0 0.0
2017-Oct-18 04:58N 40°40' W 074°02'0 0.0
2017-Oct-18 04:28N 40°40' W 074°02'0 0.0
2017-Oct-18 03:58N 40°40' W 074°02'0 0.1
2017-Oct-18 03:28N 40°40' W 074°02'0 0.3
2017-Oct-18 02:58N 40°40' W 074°02'0 0.0
2017-Oct-18 02:28N 40°40' W 074°02'0 0.0
2017-Oct-18 01:58N 40°40' W 074°02'0 0.0
2017-Oct-18 01:28N 40°40' W 074°02'0 0.0
2017-Oct-18 00:58N 40°40' W 074°02'0 0.0
2017-Oct-18 00:28N 40°40' W 074°02'0 0.0
2017-Oct-17 23:58N 40°40' W 074°02'0 0.0
2017-Oct-17 23:28N 40°40' W 074°02'0 0.0
2017-Oct-17 22:58N 40°40' W 074°02'0 0.0
2017-Oct-17 22:28N 40°40' W 074°02'0 0.0
2017-Oct-17 21:58N 40°40' W 074°02'0 0.0
2017-Oct-17 21:28N 40°40' W 074°02'0 0.1
2017-Oct-17 20:58N 40°40' W 074°02'0 0.0
2017-Oct-17 20:28N 40°40' W 074°02'0 0.1
2017-Oct-17 19:58N 40°40' W 074°02'0 0.3
2017-Oct-17 19:28N 40°40' W 074°02'0 0.1
2017-Oct-17 18:58N 40°40' W 074°02'0 0.0
2017-Oct-17 18:28N 40°40' W 074°02'0 0.0
2017-Oct-17 17:58N 40°40' W 074°02'0 0.0
2017-Oct-17 17:28N 40°40' W 074°02'0 0.0
2017-Oct-17 16:58N 40°40' W 074°02'0 0.0
2017-Oct-17 16:28N 40°40' W 074°02'0 0.0
2017-Oct-17 15:58N 40°40' W 074°02'0 0.0
2017-Oct-17 15:28N 40°40' W 074°02'0 0.1
2017-Oct-17 14:58N 40°40' W 074°02'0 0.0
2017-Oct-17 14:28N 40°40' W 074°02'0 0.0
2017-Oct-17 13:58N 40°40' W 074°02'0 0.0
2017-Oct-17 13:28N 40°40' W 074°02'0 0.1
2017-Oct-17 12:58N 40°40' W 074°02'0 0.2
2017-Oct-17 12:28N 40°40' W 074°02'0 0.1
2017-Oct-17 11:58N 40°40' W 074°02'0 0.1
2017-Oct-17 11:28N 40°40' W 074°02'0 0.0
2017-Oct-17 10:58N 40°40' W 074°02'0 0.0
2017-Oct-17 10:28N 40°40' W 074°02'0 0.1
2017-Oct-17 09:58N 40°40' W 074°02'0 0.1
2017-Oct-17 09:28N 40°40' W 074°02'1 2.3
2017-Oct-17 09:00N 40°41' W 074°02'4 7.6
2017-Oct-17 08:30N 40°45' W 074°01'4 7.1
2017-Oct-17 08:00N 40°48' W 073°59'5 9.0
2017-Oct-17 07:30N 40°52' W 073°56'5 9.4
2017-Oct-17 07:00N 40°56' W 073°54'2 0.0
2017-Oct-15 09:25N 40°58' W 073°54'4 8.4
2017-Oct-15 08:58N 40°55' W 073°55'4 8.4
2017-Oct-15 08:30N 40°51' W 073°57'4 8.4
2017-Oct-15 08:00N 40°47' W 073°59'4 7.9
2017-Oct-15 07:30N 40°44' W 074°01'4 7.4
2017-Oct-15 07:00N 40°40' W 074°03'3 5.6
2017-Oct-15 06:30N 40°39' W 074°06'3 5.1
2017-Oct-15 06:00N 40°39' W 074°10'2 4.7
2017-Oct-15 05:30N 40°38' W 074°12'0 0.1
2017-Oct-15 05:00N 40°38' W 074°12'0 0.0
2017-Oct-15 04:30N 40°38' W 074°12'2 3.9
2017-Oct-15 03:59N 40°38' W 074°10'0 0.0
2017-Oct-15 03:28N 40°38' W 074°10'0 0.0
2017-Oct-15 02:55N 40°38' W 074°10'0 0.0
2017-Oct-15 02:31N 40°38' W 074°10'2 3.6
2017-Oct-15 02:00N 40°38' W 074°12'0 0.5
2017-Oct-15 01:31N 40°38' W 074°12'0 0.0
2017-Oct-15 00:57N 40°38' W 074°12'0 0.0
2017-Oct-15 00:30N 40°38' W 074°12'0 0.0
2017-Oct-15 00:00N 40°38' W 074°12'0 0.0
2017-Oct-14 23:30N 40°38' W 074°12'0 0.0
2017-Oct-14 23:00N 40°38' W 074°12'0 0.0
2017-Oct-14 22:21N 40°38' W 074°12'0 0.0
2017-Oct-14 22:00N 40°38' W 074°12'0 0.0
2017-Oct-14 21:24N 40°38' W 074°12'0 0.0
2017-Oct-14 20:57N 40°38' W 074°12'0 0.0
2017-Oct-14 20:27N 40°38' W 074°12'0 0.0
2017-Oct-14 19:57N 40°38' W 074°12'0 0.0
2017-Oct-14 19:30N 40°38' W 074°12'0 0.0
2017-Oct-14 19:00N 40°38' W 074°12'0 0.0
2017-Oct-14 18:27N 40°38' W 074°12'0 0.0
2017-Oct-14 17:57N 40°38' W 074°12'0 0.0
2017-Oct-14 17:30N 40°38' W 074°12'0 0.0
2017-Oct-14 16:58N 40°38' W 074°12'0 0.0
2017-Oct-14 16:30N 40°38' W 074°12'0 0.0
2017-Oct-14 16:00N 40°38' W 074°12'0 0.0
2017-Oct-14 15:30N 40°38' W 074°12'0 0.0
2017-Oct-14 14:54N 40°38' W 074°12'0 0.0
2017-Oct-14 14:30N 40°38' W 074°12'0 0.0
2017-Oct-14 14:00N 40°38' W 074°12'0 0.0
2017-Oct-14 13:30N 40°38' W 074°12'0 0.0
2017-Oct-14 13:00N 40°38' W 074°12'0 0.0
2017-Oct-14 11:30N 40°38' W 074°12'0 0.0
2017-Oct-14 10:51N 40°38' W 074°12'0 0.0
2017-Oct-14 10:21N 40°38' W 074°12'0 0.0
2017-Oct-14 09:57N 40°38' W 074°12'0 0.0
2017-Oct-14 09:24N 40°38' W 074°12'0 0.0
2017-Oct-14 08:45N 40°38' W 074°12'0 0.0
2017-Oct-14 08:21N 40°38' W 074°12'0 0.0
2017-Oct-14 07:54N 40°38' W 074°12'0 0.0
2017-Oct-14 07:30N 40°38' W 074°12'0 0.0
2017-Oct-14 07:00N 40°38' W 074°12'0 0.0
2017-Oct-14 06:27N 40°38' W 074°12'0 0.0
2017-Oct-14 05:51N 40°38' W 074°12'0 0.0
2017-Oct-14 05:30N 40°38' W 074°12'0 0.0
2017-Oct-14 04:57N 40°38' W 074°12'0 0.0
2017-Oct-14 04:27N 40°38' W 074°12'0 0.0
2017-Oct-14 03:57N 40°38' W 074°12'0 0.0
2017-Oct-14 03:27N 40°38' W 074°12'0 0.0
2017-Oct-14 02:45N 40°38' W 074°12'0 0.0
2017-Oct-14 02:30N 40°38' W 074°12'0 0.0
2017-Oct-14 01:39N 40°38' W 074°12'0 0.0
2017-Oct-14 01:27N 40°38' W 074°12'0 0.0
2017-Oct-14 00:57N 40°38' W 074°12'0 0.0
2017-Oct-14 00:27N 40°38' W 074°12'0 0.0
2017-Oct-13 23:51N 40°38' W 074°12'0 0.0
2017-Oct-13 23:27N 40°38' W 074°12'0 0.0
2017-Oct-13 22:57N 40°38' W 074°12'0 0.0
2017-Oct-13 22:27N 40°38' W 074°12'0 0.2
2017-Oct-13 22:00N 40°38' W 074°12'2 4.0
2017-Oct-13 21:30N 40°39' W 074°10'4 7.0
2017-Oct-13 21:00N 40°39' W 074°05'3 6.7
2017-Oct-13 20:30N 40°41' W 074°02'4 7.3
2017-Oct-13 20:00N 40°45' W 074°01'3 6.8
2017-Oct-13 19:30N 40°48' W 073°59'4 7.1
2017-Oct-13 19:00N 40°51' W 073°57'4 7.4
2017-Oct-13 18:30N 40°54' W 073°55'2 1.1
2017-Oct-13 16:40N 40°56' W 073°55'0 0.0
2017-Oct-13 16:16N 40°56' W 073°55'0 0.0
2017-Oct-13 15:58N 40°56' W 073°55'0 0.0
2017-Oct-13 15:31N 40°56' W 073°55'0 0.0
2017-Oct-13 14:46N 40°56' W 073°55'0 0.1
2017-Oct-13 14:28N 40°56' W 073°55'0 0.0
2017-Oct-13 13:28N 40°56' W 073°55'0 0.0
2017-Oct-13 12:58N 40°56' W 073°55'0 0.0
2017-Oct-13 12:28N 40°56' W 073°55'0 0.0
2017-Oct-13 12:01N 40°56' W 073°55'0 0.0
2017-Oct-13 11:28N 40°56' W 073°55'0 0.0
2017-Oct-13 10:58N 40°56' W 073°55'0 0.1
2017-Oct-13 10:28N 40°56' W 073°55'0 0.1
2017-Oct-13 08:37N 40°57' W 073°55'0 0.1
2017-Oct-13 07:10N 40°56' W 073°55'0 0.2
2017-Oct-13 07:01N 40°56' W 073°55'0 0.0
2017-Oct-13 05:46N 40°56' W 073°55'0 0.0
2017-Oct-13 05:22N 40°56' W 073°55'0 0.0
2017-Oct-13 04:58N 40°56' W 073°55'0 0.0
2017-Oct-13 04:22N 40°56' W 073°55'0 0.0
2017-Oct-13 03:55N 40°56' W 073°55'0 0.0
2017-Oct-13 03:28N 40°56' W 073°55'0 0.0
2017-Oct-13 02:34N 40°56' W 073°55'0 0.0
2017-Oct-13 02:28N 40°56' W 073°55'0 0.0
2017-Oct-13 01:46N 40°56' W 073°55'0 0.1
2017-Oct-12 21:52N 40°57' W 073°55'0 0.0
2017-Oct-12 21:25N 40°57' W 073°55'0 0.0
2017-Oct-12 20:28N 40°57' W 073°55'0 0.0
2017-Oct-12 19:09N 40°57' W 073°55'0 0.0
2017-Oct-12 19:00N 40°57' W 073°55'0 0.1
2017-Oct-12 14:09N 40°56' W 073°55'0 0.0
2017-Oct-12 12:57N 40°56' W 073°55'0 0.0
2017-Oct-12 12:28N 40°56' W 073°55'0 0.0
2017-Oct-12 10:09N 40°56' W 073°55'0 0.1
2017-Oct-12 06:33N 40°57' W 073°55'  

Dump ship's entire track history